Station 45168 - South Haven Buoy, MI Image indicating link to RSS feed of recent meteorological observations for station 45168


Conditions at 45168 as of
(7:00 pm EDT)
2300 GMT on 09/06/2026:
     

Click on the graph icon in the table below to see a time series plot of the last five days of that observation.

5-day plot - Wind Direction Wind Direction (WDIR):NNE ( 30 deg true )
5-day plot - Wind Speed Wind Speed (WSPD): 7.8 kts
5-day plot - Wind Gust Wind Gust (GST): 11.7 kts
5-day plot - Wave Height Wave Height (WVHT): 1.0 ft
5-day plot - Dominant Wave Period Dominant Wave Period (DPD): 3 sec
5-day plot - Mean Wave Direction Mean Wave Direction (MWD): NW ( 308 deg true )
5-day plot - Atmospheric Pressure Atmospheric Pressure (PRES):30.08 in
5-day plot - Pressure Tendency Pressure Tendency (PTDY):+0.00 in ( Steady )
5-day plot - Air Temperature Air Temperature (ATMP): 75.0 °F
5-day plot - Water Temperature Water Temperature (WTMP): 72.3 °F
5-day plot - Dew Point Dew Point (DEWP): 60.4 °F
5-day plot - Wind Speed at 10 Meters Wind Speed at 10 meters (WSPD10M): 9.7 kts
5-day plot - Wind Speed at 20 Meters Wind Speed at 20 meters (WSPD20M): 9.7 kts
5-day plot -  Wind Speed, Wind Gust and Atmospheric Pressure Combined plot of Wind Speed, Gust, and Air Pressure
Previous observations
TIME
(EDT)
5-day plot - Wind Direction
WDIR
 
5-day plot - Wind Speed
WSPD
kts
5-day plot - Wind Gust
GST
kts
5-day plot - Wave Height
WVHT
ft
5-day plot - Dominant Wave Period
DPD
sec
5-day plot - Average Wave Period
APD
sec
5-day plot - Mean Wave Direction
MWD
 
5-day plot - Atmospheric Pressure
PRES
in
5-day plot - Pressure Tendency
PTDY
in
5-day plot - Air Temperature
ATMP
°F
5-day plot - Water Temperature
WTMP
°F
5-day plot - Dew Point
DEWP
°F
5-day plot - Salinity
SAL
psu
5-day plot - Visibility
VIS
nmi
5-day plot - Tide (above MLLW)
TIDE
ft
2026-09-06 06:50 pmNNE 7.8 9.7 1.0-- NE30.08- 75.0 72.3 60.3---
2026-09-06 06:30 pmNNE 7.8 9.7 1.0-- NE30.08- 75.0 72.3 60.6---
2026-09-06 06:20 pmNNE 7.8 9.7 1.0-- E30.09- 75.2 72.3 60.3---
2026-09-06 06:10 pmNNE 7.8 9.7 1.0-- NE30.09- 75.0 72.1 60.1---
2026-09-06 06:00 pmNNE 9.7 11.7 1.0--ENE30.08- 75.0 72.1 60.4---
2026-09-06 05:50 pmNNE 7.8 11.7 0.7-- N30.09- 75.2 72.1 60.1---
2026-09-06 05:40 pmNNE 7.8 9.7 1.0 4- N30.09- 75.0 72.1 60.8---
2026-09-06 05:30 pm N 7.8 9.7 1.0 4- N30.09- 75.0 72.1 60.1---
2026-09-06 05:20 pmNNE 7.8 9.7 0.7-- NE30.09- 75.0 72.1 60.3---
2026-09-06 05:00 pm NE 7.8 11.7 1.0 4-NNW30.09-0.02 75.0 72.1 60.6---
2026-09-06 04:50 pmNNE 7.8 9.7 1.0 4- N30.10- 75.0 72.1 60.3---
2026-09-06 04:40 pmNNE 7.8 9.7 1.0 4-NNW30.10- 75.0 72.1 60.6---
2026-09-06 04:20 pm NE 7.8 9.7 1.0-- NE30.10- 74.8 72.1 60.3---
2026-09-06 04:10 pm NE 7.8 11.7 1.0-- N30.09- 75.0 72.1 59.2---
2026-09-06 04:00 pmNNE 7.8 11.7 1.0 4- N30.09-0.04 74.7 72.1 60.3---
2026-09-06 03:50 pmNNE 7.8 9.7 0.7--NNW30.09- 74.7 72.1 59.9---
2026-09-06 03:40 pmNNE 7.8 11.7 0.7--NNW30.09- 74.5 72.1 60.3---
2026-09-06 03:30 pmNNE 5.8 7.8 1.0 4-NNW30.10- 74.3 72.1 60.1---
2026-09-06 03:20 pm NE 7.8 11.7 1.0 5- N30.10- 74.3 72.1 60.3---
2026-09-06 03:10 pmNNE 7.8 11.7 1.0 4- N30.10- 74.1 72.1 60.3---
2026-09-06 02:50 pmNNE 5.8 9.7 1.0 4-NNE30.10- 73.9 72.1 59.7---
2026-09-06 02:40 pmENE 5.8 9.7 1.0 4- N30.10- 73.9 72.1 59.2---
2026-09-06 02:30 pm NE 5.8 9.7 1.0 5- N30.11- 73.6 72.0 59.5---
2026-09-06 02:20 pm NE 7.8 11.7 1.0 5- N30.11- 73.4 72.0 59.4---
2026-09-06 02:10 pm NE 5.8 9.7 1.0 5- N30.11- 73.2 72.0 59.4---
2026-09-06 02:00 pm NE 5.8 9.7 0.7-- N30.11-0.02 73.0 72.0 59.5---
2026-09-06 01:50 pm NE 5.8 9.7 1.0 5- N30.11- 72.7 72.0 59.0---
2026-09-06 01:40 pm NE 5.8 7.8 1.0 5- N30.12- 72.5 72.0 59.2---
2026-09-06 01:30 pm NE 5.8 7.8 1.0 5-NNW30.13- 72.3 71.8 58.6---
2026-09-06 01:20 pm NE 5.8 9.7 1.0 5- N30.13- 72.1 71.8 58.5---
2026-09-06 01:00 pm NE 9.7 11.7 1.0 5- N30.13+0.00 71.8 71.6 58.1---
2026-09-06 12:50 pm NE 7.8 11.7 1.0 5- N30.13- 71.6 71.6 58.1---
2026-09-06 12:40 pm NE 7.8 9.7 1.0 5-NNW30.14- 71.4 71.6 58.6---
2026-09-06 12:30 pm NE 5.8 13.6 1.0 5- N30.13- 71.1 71.6 59.2---
2026-09-06 12:20 pm NE 5.8 7.8 1.0 5-NNW30.14- 70.7 71.6 58.8---
2026-09-06 12:00 pm NE 5.8 11.7 1.0 5-NNW30.14+0.01 70.2 71.6 59.5---
2026-09-06 11:50 am NE 5.8 9.7 1.0 5- N30.14- 69.6 71.4 59.2---
2026-09-06 11:40 am NE 5.8 9.7 1.0 5- N30.14- 69.4 71.4 59.2---
2026-09-06 11:30 am NE 7.8 9.7 1.0 5- N30.14- 69.1 71.4 59.5---
2026-09-06 11:20 am NE 7.8 11.7 1.0 5- N30.14- 68.7 71.4 59.2---
2026-09-06 11:10 am NE 9.7 11.7 1.3 5- N30.14- 68.5 71.2 59.7---
2026-09-06 11:00 am NE 9.7 11.7 1.3 5- N30.14+0.02 68.2 71.2 60.4---
2026-09-06 10:50 amENE 7.8 11.7 1.3 5- N30.13- 67.8 71.2 60.3---
2026-09-06 10:40 amENE 9.7 11.7 1.3 5- N30.14- 67.5 71.2 60.1---
2026-09-06 10:30 amENE 9.7 11.7 1.3 5- N30.13- 67.3 71.2 60.3---
2026-09-06 10:20 amENE 9.7 11.7 1.3 5-NNW30.13- 66.9 71.2 60.1---
2026-09-06 10:10 amENE 9.7 13.6 1.3 5-NNW30.13- 66.6 71.2 60.1---
2026-09-06 10:00 amENE 9.7 13.6 1.3 5- N30.13+0.05 66.2 71.2 59.9---
2026-09-06 09:40 amENE 7.8 11.7 1.3 5- N30.13- 65.5 71.2 59.2---
2026-09-06 09:20 amENE 7.8 9.7 1.3 5-NNW30.13- 64.9 71.2 58.8---
2026-09-06 09:10 amENE 9.7 11.7 1.3 5-NNW30.13- 64.2 71.2 58.1---
2026-09-06 09:00 amENE 11.7 15.5 1.3 5-NNW30.13+0.05 63.9 71.2 57.7---
2026-09-06 08:50 amENE 11.7 15.5 1.3 5-NNW30.12- 63.9 71.2 57.7---
2026-09-06 08:40 amENE 11.7 15.5 1.3--ENE30.12- 63.7 71.2 57.7---
2026-09-06 08:30 amENE 11.7 15.5 1.3--ENE30.12- 63.5 71.2 57.9---
2026-09-06 08:10 amENE 11.7 13.6 1.3 5-NNW30.11- 63.3 71.2 58.1---
2026-09-06 08:00 amENE 11.7 15.5 1.3 5-NNW30.11+0.04 63.1 71.2 58.1---
2026-09-06 07:50 amENE 11.7 15.5 1.3--ENE30.10- 63.0 71.4 58.1---
2026-09-06 07:40 amENE 13.6 15.5 1.3 2- NE30.10- 63.0 71.4 57.9---
2026-09-06 07:30 amENE 13.6 17.5 1.6 2- NE30.10- 63.1 71.4 58.1---
2026-09-06 07:20 amENE 15.5 17.5 1.3--ENE30.09- 63.3 71.4 58.3---
2026-09-06 07:10 amENE 15.5 17.5 1.3--ENE30.09- 63.3 71.4 58.3---
2026-09-06 07:00 amENE 15.5 17.5 1.3 4- N30.08+0.03 63.3 71.4 58.1---
2026-09-06 06:50 amENE 15.5 17.5 1.3--ENE30.09- 63.7 71.6 57.9---
2026-09-06 06:40 amENE 13.6 17.5 1.3 4-NNW30.08- 64.2 71.4 58.3---
2026-09-06 06:30 amENE 13.6 17.5 1.3--NNW30.08- 64.0 71.6 58.1---
2026-09-06 06:20 amENE 13.6 15.5 1.3-- N30.08- 64.0 71.6 58.3---
2026-09-06 06:10 amENE 11.7 13.6 1.3 4- N30.08- 64.2 71.6 58.1---
2026-09-06 06:00 amENE 11.7 13.6 1.3 4- NE30.07+0.03 64.8 71.6 58.1---
2026-09-06 05:50 amENE 11.7 13.6 1.3-- N30.07- 64.8 71.6 58.5---
2026-09-06 05:40 amENE 9.7 13.6 1.3 4- N30.07- 64.8 71.8 58.8---
2026-09-06 05:30 am NE 9.7 13.6 1.3 4- N30.08- 64.8 71.8 59.4---
2026-09-06 05:20 am NE 9.7 11.7 1.3 4- N30.07- 64.9 71.8 59.5---
2026-09-06 05:10 amENE 9.7 11.7 1.3 5- N30.07- 65.3 71.8 59.9---
2026-09-06 05:00 amENE 9.7 9.7 1.3 4- N30.07+0.02 65.7 71.8 60.1---
2026-09-06 04:50 amENE 9.7 11.7 1.3 4-NNW30.07- 66.0 72.0 59.9---
2026-09-06 04:40 amENE 9.7 11.7 1.3 4- N30.07- 66.2 72.0 60.3---
2026-09-06 04:30 amENE 9.7 11.7 1.3 4- N30.07- 66.6 72.0 60.1---
2026-09-06 04:20 amENE 9.7 13.6 1.3 4- N30.06- 66.9 72.0 60.6---
2026-09-06 04:10 amENE 11.7 13.6 1.3 4- N30.05- 66.9 72.0 60.6---
2026-09-06 04:00 amENE 11.7 13.6 1.6 4- N30.05+0.02 67.1 72.0 60.6---
2026-09-06 03:50 amENE 11.7 13.6 1.6 4- N30.05- 67.1 72.0 61.0---
2026-09-06 03:40 amENE 11.7 17.5 1.6 4-NNW30.05- 67.3 72.1 61.2---
2026-09-06 03:30 amENE 11.7 15.5 1.6 4- N30.05- 67.5 72.1 61.7---
2026-09-06 03:20 amENE 11.7 15.5 1.6 4-NNW30.04- 67.6 72.1 61.5---
2026-09-06 03:10 amENE 11.7 15.5 1.6 4-NNW30.05- 67.8 72.3 61.7---
2026-09-06 03:00 amENE 11.7 13.6 1.6 4- N30.05+0.03 68.2 72.3 62.1---
2026-09-06 02:50 amENE 11.7 13.6 1.6 4- N30.05- 68.4 72.3 62.1---
2026-09-06 02:40 amENE 11.7 13.6 1.6 4- N30.06- 68.5 72.3 62.1---
2026-09-06 02:30 amENE 11.7 13.6 1.6 4-NNW30.06- 68.7 72.3 62.1---
2026-09-06 02:20 amENE 9.7 13.6 1.6 4- N30.06- 68.9 72.3 62.2---
2026-09-06 02:10 amENE 9.7 13.6 1.6 4-NNW30.06- 69.1 72.3 62.1---
2026-09-06 02:00 amENE 9.7 13.6 1.6 4-NNW30.05+0.02 69.3 72.3 62.4---
2026-09-06 01:50 amENE 11.7 13.6 1.6 4-NNW30.05- 69.6 72.5 62.4---
2026-09-06 01:40 amENE 11.7 13.6 1.6 4-NNW30.04- 70.0 72.5 62.8---
2026-09-06 01:30 amENE 11.7 13.6 1.6 4-NNW30.04- 70.3 72.5 62.8---
2026-09-06 01:20 amENE 11.7 13.6 1.3 4-NNW30.04- 70.9 72.5 63.0---
2026-09-06 01:10 amENE 11.7 13.6 1.3 4- N30.04- 71.1 72.5 62.6---
2026-09-06 01:00 am NE 11.7 13.6 1.6 3-NNW30.03+0.02 71.4 72.7 63.0---
2026-09-06 12:50 am NE 11.7 15.5 1.6 4-NNW30.03- 71.6 72.7 63.0---
2026-09-06 12:40 amENE 11.7 15.5 1.6 4-NNW30.03- 72.0 72.7 63.1---
2026-09-06 12:30 amENE 11.7 15.5 1.6 4-NNW30.03- 72.1 72.7 63.5---
2026-09-06 12:20 amENE 13.6 15.5 1.3 4-NNW30.02- 72.1 72.9 64.0---
2026-09-06 12:10 amENE 13.6 17.5 1.3 3-NNW30.01- 72.3 72.9 64.6---
2026-09-06 12:00 amENE 11.7 15.5 1.3 4-NNW30.02+0.02 72.5 72.9 65.3---
2026-09-05 11:50 pmENE 9.7 13.6 1.3 3-NNW30.02- 72.7 72.9 65.7---
2026-09-05 11:40 pm NE 7.8 9.7 1.3 3-NNW30.02- 72.9 72.9 66.4---
2026-09-05 11:30 pmNNE 5.8 7.8 1.3 3-NNW30.02- 73.0 72.9 67.1---
2026-09-05 11:20 pm N 7.8 9.7 1.6 3-NNW30.02- 73.0 72.9 68.0---
2026-09-05 11:10 pm N 7.8 11.7 1.6 3-NNW30.03- 72.9 72.9 68.7---
2026-09-05 11:00 pm N 9.7 11.7 1.6 3-NNW30.03+0.04 72.5 72.9 68.7---
2026-09-05 10:50 pmNNW 9.7 11.7 1.6 3-NNW30.02- 72.5 72.9 68.9---
2026-09-05 10:40 pmNNW 11.7 13.6 1.6 3-NNW30.02- 72.5 72.9 68.9---
2026-09-05 10:30 pmNNW 11.7 13.6 1.6 3- N30.02- 72.3 72.9 68.9---
2026-09-05 10:20 pm N 11.7 13.6 1.6 3- N30.02- 72.3 72.9 68.7---
2026-09-05 10:10 pm N 11.7 13.6 1.3 2- N30.01- 72.3 73.0 68.9---
2026-09-05 10:00 pm N 11.7 13.6 1.3 2- N30.01+0.03 72.3 72.9 69.1---
2026-09-05 09:50 pmNNW 11.7 15.5 1.3 2- N30.01- 72.3 73.0 68.9---
2026-09-05 09:40 pm N 11.7 15.5 1.3 2- N30.01- 72.3 73.0 69.3---
2026-09-05 09:30 pm N 13.6 15.5 1.3 2- N30.01- 72.3 73.0 69.1---
2026-09-05 09:20 pm N 11.7 15.5 1.3-- N30.00- 72.3 73.0 69.3---
2026-09-05 09:10 pmNNW 11.7 15.5 1.0-- N30.00- 72.3 73.0 69.6---
2026-09-05 09:00 pmNNW 11.7 13.6 1.0-- N30.00+0.04 72.5 73.0 69.6---
2026-09-05 08:50 pmNNW 9.7 11.7 1.0--NNE30.00- 72.9 73.0 69.8---
2026-09-05 08:40 pmNNW 7.8 9.7 1.0 2- N29.99- 72.9 73.0 69.6---
2026-09-05 08:30 pmNNW 7.8 9.7 1.0 3- N29.99- 72.9 73.0 69.6---
2026-09-05 08:20 pm N 7.8 9.7 1.0 3- N29.99- 73.0 73.0 69.4---
2026-09-05 08:10 pm N 7.8 9.7 1.0 3- N29.99- 73.6 73.0 69.4---
2026-09-05 08:00 pmNNE 7.8 7.8 1.0 3- N29.98+0.03 73.8 73.2 68.7---
2026-09-05 07:40 pmNNE 7.8 9.7 1.3 3- N29.99- 73.9 73.2 68.5---
2026-09-05 07:30 pmNNE 9.7 9.7 1.3 3-NNW29.99- 73.9 73.2 68.4---
2026-09-05 07:10 pmNNE 9.7 11.7 1.3--NNW29.98- 73.9 73.0 68.5---
2026-09-05 07:00 pmNNE 9.7 11.7 1.3--NNE29.98+0.02 73.9 73.0 68.5---
2026-09-05 06:50 pmNNE 9.7 11.7 1.3 3-NNE29.98- 73.6 73.0 68.7---

Wave Summary
for 45168 as of (7:00 pm EDT)
2300 GMT on 09/06/2026:

These wave data are displayed in rounded times.

     

Click on the graph icon in the table below to see a time series plot of the last five days of that observation.

5-day plot - Significant Wave Height Significant Wave Height (WVHT): 1.0 ft
Previous observations
TIME
(EDT)
5-day plot - Wave Height
WVHT
ft
5-day plot - Swell Height
SwH
ft
5-day plot - Swell Period
SwP
sec
5-day plot - Swell Direction
SwD
 
5-day plot - Wind Wave Height
WWH
ft
5-day plot - Wind Wave Period
WWP
sec
5-day plot - Wind Wave Direction
WWD
 
5-day plot - Wave Steepness
STEEPNESS
 
5-day plot - Average Wave Period
APD
sec
2026-09-06 06:50 pm 1.0------ N/A-
2026-09-06 06:30 pm 1.0------ N/A-
2026-09-06 06:20 pm 1.0------ N/A-
2026-09-06 06:10 pm 1.0------ N/A-
2026-09-06 06:00 pm 1.0------ N/A-
2026-09-06 05:50 pm 0.7------ N/A-
2026-09-06 05:40 pm 1.0------ N/A-
2026-09-06 05:30 pm 1.0------ N/A-
2026-09-06 05:20 pm 0.7------ N/A-
2026-09-06 05:00 pm 1.0------ N/A-
2026-09-06 04:50 pm 1.0------ N/A-
2026-09-06 04:40 pm 1.0------ N/A-
2026-09-06 04:10 pm 1.0------ N/A-
2026-09-06 04:00 pm 1.0------ N/A-
2026-09-06 03:50 pm 0.7------ N/A-
2026-09-06 03:40 pm 0.7------ N/A-
2026-09-06 03:30 pm 1.0------ N/A-
2026-09-06 03:20 pm 1.0------ N/A-
2026-09-06 03:10 pm 0.7------ N/A-
2026-09-06 02:50 pm 1.0------ N/A-
2026-09-06 02:40 pm 1.0------ N/A-
2026-09-06 02:30 pm 1.0------ N/A-
2026-09-06 02:20 pm 1.0------ N/A-
2026-09-06 02:10 pm 1.0------ N/A-
2026-09-06 02:00 pm 0.7------ N/A-
2026-09-06 01:50 pm 1.0------ N/A-
2026-09-06 01:40 pm 1.0------ N/A-
2026-09-06 01:30 pm 1.0------ N/A-
2026-09-06 01:20 pm 1.0------ N/A-
2026-09-06 01:00 pm 1.0------ N/A-
2026-09-06 12:50 pm 1.0------ N/A-
2026-09-06 12:40 pm 1.0------ N/A-
2026-09-06 12:30 pm 1.0------ N/A-
2026-09-06 12:20 pm 1.0------ N/A-
2026-09-06 12:00 pm 1.0------ N/A-
2026-09-06 11:50 am 1.0------ N/A-
2026-09-06 11:40 am 1.0------ N/A-
2026-09-06 11:30 am 1.0------ N/A-
2026-09-06 11:20 am 1.0------ N/A-
2026-09-06 11:10 am 1.3------ N/A-
2026-09-06 11:00 am 1.3------ N/A-
2026-09-06 10:50 am 1.3------ N/A-
2026-09-06 10:40 am 1.3------ N/A-
2026-09-06 10:30 am 1.3------ N/A-
2026-09-06 10:20 am 1.3------ N/A-
2026-09-06 10:10 am 1.3------ N/A-
2026-09-06 10:00 am 1.3------ N/A-
2026-09-06 09:40 am 1.3------ N/A-
2026-09-06 09:20 am 1.3------ N/A-
2026-09-06 09:10 am 1.3------ N/A-
2026-09-06 09:00 am 1.3------ N/A-
2026-09-06 08:50 am 1.3------ N/A-
2026-09-06 08:40 am 1.3------ N/A-
2026-09-06 08:30 am 1.3------ N/A-
2026-09-06 08:10 am 1.3------ N/A-
2026-09-06 08:00 am 1.3------ N/A-
2026-09-06 07:50 am 1.3------ N/A-
2026-09-06 07:40 am 1.3------ N/A-
2026-09-06 07:30 am 1.6------ N/A-
2026-09-06 07:20 am 1.3------ N/A-
2026-09-06 07:10 am 1.3------ N/A-
2026-09-06 07:00 am 1.3------ N/A-
2026-09-06 06:50 am 1.3------ N/A-
2026-09-06 06:40 am 1.3------ N/A-
2026-09-06 06:10 am 1.3------ N/A-
2026-09-06 06:00 am 1.3------ N/A-
2026-09-06 05:50 am 1.3------ N/A-
2026-09-06 05:40 am 1.3------ N/A-
2026-09-06 05:30 am 1.3------ N/A-
2026-09-06 05:20 am 1.3------ N/A-
2026-09-06 05:10 am 1.3------ N/A-
2026-09-06 05:00 am 1.3------ N/A-
2026-09-06 04:50 am 1.3------ N/A-
2026-09-06 04:40 am 1.3------ N/A-
2026-09-06 04:30 am 1.3------ N/A-
2026-09-06 04:20 am 1.3------ N/A-
2026-09-06 04:10 am 1.3------ N/A-
2026-09-06 04:00 am 1.6------ N/A-
2026-09-06 03:50 am 1.6------ N/A-
2026-09-06 03:40 am 1.6------ N/A-
2026-09-06 03:30 am 1.6------ N/A-
2026-09-06 03:20 am 1.6------ N/A-
2026-09-06 03:10 am 1.6------ N/A-
2026-09-06 03:00 am 1.6------ N/A-
2026-09-06 02:50 am 1.6------ N/A-
2026-09-06 02:40 am 1.6------ N/A-
2026-09-06 02:30 am 1.6------ N/A-
2026-09-06 02:20 am 1.6------ N/A-
2026-09-06 02:10 am 1.6------ N/A-
2026-09-06 02:00 am 1.6------ N/A-
2026-09-06 01:50 am 1.6------ N/A-
2026-09-06 01:40 am 1.6------ N/A-
2026-09-06 01:30 am 1.6------ N/A-
2026-09-06 01:20 am 1.3------ N/A-
2026-09-06 01:10 am 1.3------ N/A-
2026-09-06 01:00 am 1.6------ N/A-
2026-09-06 12:50 am 1.6------ N/A-
2026-09-06 12:40 am 1.6------ N/A-
2026-09-06 12:30 am 1.6------ N/A-
2026-09-06 12:20 am 1.3------ N/A-
2026-09-06 12:10 am 1.3------ N/A-
2026-09-06 12:00 am 1.3------ N/A-
2026-09-05 11:50 pm 1.3------ N/A-
2026-09-05 11:40 pm 1.3------ N/A-
2026-09-05 11:30 pm 1.3------ N/A-
2026-09-05 11:20 pm 1.6------ N/A-
2026-09-05 11:10 pm 1.6------ N/A-
2026-09-05 11:00 pm 1.6------ N/A-
2026-09-05 10:50 pm 1.6------ N/A-
2026-09-05 10:40 pm 1.6------ N/A-
2026-09-05 10:30 pm 1.6------ N/A-
2026-09-05 10:20 pm 1.6------ N/A-
2026-09-05 10:10 pm 1.3------ N/A-
2026-09-05 10:00 pm 1.3------ N/A-
2026-09-05 09:50 pm 1.3------ N/A-
2026-09-05 09:40 pm 1.3------ N/A-
2026-09-05 09:30 pm 1.3------ N/A-
2026-09-05 09:20 pm 1.3------ N/A-
2026-09-05 09:10 pm 1.0------ N/A-
2026-09-05 09:00 pm 1.0------ N/A-
2026-09-05 08:50 pm 1.0------ N/A-
2026-09-05 08:40 pm 1.0------ N/A-
2026-09-05 08:30 pm 1.0------ N/A-
2026-09-05 08:20 pm 1.0------ N/A-
2026-09-05 08:10 pm 1.0------ N/A-
2026-09-05 08:00 pm 1.0------ N/A-
2026-09-05 07:40 pm 1.3------ N/A-
2026-09-05 07:30 pm 1.3------ N/A-
2026-09-05 07:20 pm 1.3------ N/A-
2026-09-05 07:10 pm 1.3------ N/A-
2026-09-05 07:00 pm 1.3------ N/A-
2026-09-05 06:50 pm 1.3------ N/A-

Ocean Conditions at 45168 as of
(7:00 pm EDT)
2300 GMT on 09/06/2026:

These oceanographic data are displayed in rounded times.

     

Click on the graph icon in the table below to see a time series plot of the last five days of that observation.

Depth (DEPTH): 3.3 ft
5-day plot - Ocean Temperature Ocean Temperature (OTMP):72.23 °F
Previous observations
TIME
(EDT)
DEPTH
ft
5-day plot - Ocean Temperature
OTMP
°F
5-day plot - Conductivity
COND
mS/cm
5-day plot - Salinity
SAL
psu
5-day plot - Oxygen Saturation
O2%
%
5-day plot - Oxygen Concentration
O2PPM
ppm
5-day plot - Chlorophyll
CLCON
ug/l
5-day plot - Turbidity
TURB
FTU
5-day plot - pH
PH
 
5-day plot - Eh
EH
mV
2026-09-06 06:50 pm 3.372.28--------
2026-09-06 06:30 pm 3.372.27--------
2026-09-06 06:20 pm 3.372.27--------
2026-09-06 06:10 pm 3.372.18--------
2026-09-06 06:00 pm 3.372.18--------
2026-09-06 05:50 pm 3.372.16--------
2026-09-06 05:40 pm 3.372.18--------
2026-09-06 05:30 pm 3.372.16--------
2026-09-06 05:20 pm 3.372.18--------
2026-09-06 05:00 pm 3.372.12--------
2026-09-06 04:50 pm 3.372.09--------
2026-09-06 04:40 pm 3.372.12--------
2026-09-06 04:20 pm 3.372.10--------
2026-09-06 04:10 pm 3.372.16--------
2026-09-06 04:00 pm 3.372.12--------
2026-09-06 03:50 pm 3.372.16--------
2026-09-06 03:40 pm 3.372.18--------
2026-09-06 03:30 pm 3.372.18--------
2026-09-06 03:20 pm 3.372.16--------
2026-09-06 03:10 pm 3.372.19--------
2026-09-06 02:50 pm 3.372.12--------
2026-09-06 02:40 pm 3.372.05--------
2026-09-06 02:30 pm 3.371.94--------
2026-09-06 02:20 pm 3.371.98--------
2026-09-06 02:10 pm 3.371.96--------
2026-09-06 02:00 pm 3.372.00--------
2026-09-06 01:50 pm 3.371.89--------
2026-09-06 01:40 pm 3.371.87--------
2026-09-06 01:30 pm 3.371.76--------
2026-09-06 01:20 pm 3.371.76--------
2026-09-06 01:00 pm 3.371.69--------
2026-09-06 12:50 pm 3.371.64--------
2026-09-06 12:40 pm 3.371.60--------
2026-09-06 12:30 pm 3.371.60--------
2026-09-06 12:20 pm 3.371.56--------
2026-09-06 12:00 pm 3.371.51--------
2026-09-06 11:50 am 3.371.47--------
2026-09-06 11:40 am 3.371.40--------
2026-09-06 11:30 am 3.371.35--------
2026-09-06 11:20 am 3.371.35--------
2026-09-06 11:10 am 3.371.31--------
2026-09-06 11:00 am 3.371.31--------
2026-09-06 10:50 am 3.371.29--------
2026-09-06 10:40 am 3.371.28--------
2026-09-06 10:30 am 3.371.28--------
2026-09-06 10:20 am 3.371.26--------
2026-09-06 10:10 am 3.371.26--------
2026-09-06 10:00 am 3.371.26--------
2026-09-06 09:40 am 3.371.26--------
2026-09-06 09:20 am 3.371.24--------
2026-09-06 09:10 am 3.371.24--------
2026-09-06 09:00 am 3.371.24--------
2026-09-06 08:50 am 3.371.22--------
2026-09-06 08:40 am 3.371.24--------
2026-09-06 08:30 am 3.371.24--------
2026-09-06 08:10 am 3.371.29--------
2026-09-06 08:00 am 3.371.33--------
2026-09-06 07:50 am 3.371.35--------
2026-09-06 07:40 am 3.371.37--------
2026-09-06 07:30 am 3.371.40--------
2026-09-06 07:20 am 3.371.38--------
2026-09-06 07:10 am 3.371.40--------
2026-09-06 07:00 am 3.371.47--------
2026-09-06 06:50 am 3.371.51--------
2026-09-06 06:40 am 3.371.51--------
2026-09-06 06:30 am 3.371.55--------
2026-09-06 06:20 am 3.371.58--------
2026-09-06 06:10 am 3.371.60--------
2026-09-06 06:00 am 3.371.64--------
2026-09-06 05:50 am 3.371.67--------
2026-09-06 05:40 am 3.371.71--------
2026-09-06 05:30 am 3.371.76--------
2026-09-06 05:20 am 3.371.80--------
2026-09-06 05:10 am 3.371.80--------
2026-09-06 05:00 am 3.371.83--------
2026-09-06 04:50 am 3.371.87--------
2026-09-06 04:40 am 3.371.89--------
2026-09-06 04:30 am 3.371.92--------
2026-09-06 04:20 am 3.371.96--------
2026-09-06 04:10 am 3.371.98--------
2026-09-06 04:00 am 3.372.01--------
2026-09-06 03:50 am 3.372.05--------
2026-09-06 03:40 am 3.372.09--------
2026-09-06 03:30 am 3.372.18--------
2026-09-06 03:20 am 3.372.21--------
2026-09-06 03:10 am 3.372.25--------
2026-09-06 03:00 am 3.372.27--------
2026-09-06 02:50 am 3.372.28--------
2026-09-06 02:40 am 3.372.36--------
2026-09-06 02:30 am 3.372.34--------
2026-09-06 02:20 am 3.372.36--------
2026-09-06 02:10 am 3.372.36--------
2026-09-06 02:00 am 3.372.37--------
2026-09-06 01:50 am 3.372.41--------
2026-09-06 01:40 am 3.372.43--------
2026-09-06 01:30 am 3.372.48--------
2026-09-06 01:20 am 3.372.52--------
2026-09-06 01:10 am 3.372.55--------
2026-09-06 01:00 am 3.372.59--------
2026-09-06 12:50 am 3.372.64--------
2026-09-06 12:40 am 3.372.72--------
2026-09-06 12:30 am 3.372.73--------
2026-09-06 12:20 am 3.372.81--------
2026-09-06 12:10 am 3.372.84--------
2026-09-06 12:00 am 3.372.84--------
2026-09-05 11:50 pm 3.372.88--------
2026-09-05 11:40 pm 3.372.91--------
2026-09-05 11:30 pm 3.372.93--------
2026-09-05 11:20 pm 3.372.91--------
2026-09-05 11:10 pm 3.372.93--------
2026-09-05 11:00 pm 3.372.91--------
2026-09-05 10:50 pm 3.372.93--------
2026-09-05 10:40 pm 3.372.93--------
2026-09-05 10:30 pm 3.372.93--------
2026-09-05 10:20 pm 3.372.95--------
2026-09-05 10:10 pm 3.372.95--------
2026-09-05 10:00 pm 3.372.95--------
2026-09-05 09:50 pm 3.372.97--------
2026-09-05 09:40 pm 3.372.97--------
2026-09-05 09:30 pm 3.372.99--------
2026-09-05 09:20 pm 3.373.00--------
2026-09-05 09:10 pm 3.373.02--------
2026-09-05 09:00 pm 3.373.04--------
2026-09-05 08:50 pm 3.373.06--------
2026-09-05 08:40 pm 3.373.08--------
2026-09-05 08:30 pm 3.373.08--------
2026-09-05 08:20 pm 3.373.09--------
2026-09-05 08:10 pm 3.373.09--------
2026-09-05 08:00 pm 3.373.15--------
2026-09-05 07:40 pm 3.373.15--------
2026-09-05 07:30 pm 3.373.13--------
2026-09-05 07:20 pm 3.373.09--------
2026-09-05 07:10 pm 3.373.08--------
2026-09-05 07:00 pm 3.373.06--------
2026-09-05 06:50 pm 3.373.06--------